sensor_id;sensor_type;location;lat;lon;timestamp;temperature;humidity
16154;DHT22;8182;55.648;13.208;2023-08-20T00:02:02;18.00;99.90
16154;DHT22;8182;55.648;13.208;2023-08-20T00:04:49;18.00;99.90
16154;DHT22;8182;55.648;13.208;2023-08-20T00:07:16;18.10;99.90
16154;DHT22;8182;55.648;13.208;2023-08-20T00:09:44;18.10;99.90
16154;DHT22;8182;55.648;13.208;2023-08-20T00:12:11;18.00;99.90
16154;DHT22;8182;55.648;13.208;2023-08-20T00:14:54;18.10;1.00
16154;DHT22;8182;55.648;13.208;2023-08-20T00:17:22;18.10;1.00
16154;DHT22;8182;55.648;13.208;2023-08-20T00:19:55;17.80;1.00
16154;DHT22;8182;55.648;13.208;2023-08-20T00:22:23;18.00;1.00
16154;DHT22;8182;55.648;13.208;2023-08-20T00:24:52;18.00;1.00
16154;DHT22;8182;55.648;13.208;2023-08-20T00:27:19;17.90;1.00
16154;DHT22;8182;55.648;13.208;2023-08-20T00:29:46;18.00;1.00
16154;DHT22;8182;55.648;13.208;2023-08-20T00:32:14;18.00;1.00
16154;DHT22;8182;55.648;13.208;2023-08-20T00:34:41;18.00;1.00
16154;DHT22;8182;55.648;13.208;2023-08-20T00:37:10;18.00;1.00
16154;DHT22;8182;55.648;13.208;2023-08-20T00:39:37;18.10;1.00
16154;DHT22;8182;55.648;13.208;2023-08-20T00:42:04;18.00;83.50
16154;DHT22;8182;55.648;13.208;2023-08-20T00:44:33;17.90;55.80
16154;DHT22;8182;55.648;13.208;2023-08-20T00:47:00;17.90;99.90
16154;DHT22;8182;55.648;13.208;2023-08-20T00:49:32;17.90;99.90
16154;DHT22;8182;55.648;13.208;2023-08-20T00:51:59;17.80;99.90
16154;DHT22;8182;55.648;13.208;2023-08-20T00:54:29;17.90;99.90
16154;DHT22;8182;55.648;13.208;2023-08-20T00:56:59;17.80;99.90
16154;DHT22;8182;55.648;13.208;2023-08-20T00:59:29;17.90;99.90
16154;DHT22;8182;55.648;13.208;2023-08-20T01:01:58;17.80;99.90
16154;DHT22;8182;55.648;13.208;2023-08-20T01:04:29;17.90;99.90
16154;DHT22;8182;55.648;13.208;2023-08-20T01:07:07;18.10;99.90
16154;DHT22;8182;55.648;13.208;2023-08-20T01:09:50;18.00;99.90
16154;DHT22;8182;55.648;13.208;2023-08-20T01:12:19;17.90;99.90
16154;DHT22;8182;55.648;13.208;2023-08-20T01:14:49;17.80;99.90
16154;DHT22;8182;55.648;13.208;2023-08-20T01:17:18;18.00;99.90
16154;DHT22;8182;55.648;13.208;2023-08-20T01:19:45;17.90;99.90
16154;DHT22;8182;55.648;13.208;2023-08-20T01:22:47;18.10;99.90
16154;DHT22;8182;55.648;13.208;2023-08-20T01:25:30;17.80;99.90
16154;DHT22;8182;55.648;13.208;2023-08-20T01:30:40;18.20;99.90
16154;DHT22;8182;55.648;13.208;2023-08-20T01:33:09;18.20;99.90
16154;DHT22;8182;55.648;13.208;2023-08-20T01:35:38;18.00;99.90
16154;DHT22;8182;55.648;13.208;2023-08-20T01:38:08;17.90;99.90
16154;DHT22;8182;55.648;13.208;2023-08-20T01:40:35;18.00;99.90
16154;DHT22;8182;55.648;13.208;2023-08-20T01:43:05;18.10;99.90
16154;DHT22;8182;55.648;13.208;2023-08-20T01:45:35;18.30;99.90
16154;DHT22;8182;55.648;13.208;2023-08-20T01:48:06;18.20;99.90
16154;DHT22;8182;55.648;13.208;2023-08-20T01:50:34;18.30;99.90
16154;DHT22;8182;55.648;13.208;2023-08-20T01:53:02;18.40;99.90
16154;DHT22;8182;55.648;13.208;2023-08-20T01:55:30;18.40;99.90
16154;DHT22;8182;55.648;13.208;2023-08-20T01:57:56;18.30;99.90
16154;DHT22;8182;55.648;13.208;2023-08-20T02:00:23;18.70;99.90
16154;DHT22;8182;55.648;13.208;2023-08-20T02:02:50;18.90;99.90
16154;DHT22;8182;55.648;13.208;2023-08-20T02:05:19;18.80;99.90
16154;DHT22;8182;55.648;13.208;2023-08-20T02:07:46;18.80;99.90
16154;DHT22;8182;55.648;13.208;2023-08-20T02:10:13;19.00;99.90
16154;DHT22;8182;55.648;13.208;2023-08-20T02:12:41;19.30;99.90
16154;DHT22;8182;55.648;13.208;2023-08-20T02:15:16;19.10;99.90
16154;DHT22;8182;55.648;13.208;2023-08-20T02:17:43;19.20;99.90
16154;DHT22;8182;55.648;13.208;2023-08-20T02:20:10;19.30;99.90
16154;DHT22;8182;55.648;13.208;2023-08-20T02:22:39;18.90;99.90
16154;DHT22;8182;55.648;13.208;2023-08-20T02:25:08;19.00;99.90
16154;DHT22;8182;55.648;13.208;2023-08-20T02:27:35;18.90;99.90
16154;DHT22;8182;55.648;13.208;2023-08-20T02:30:03;18.70;99.90
16154;DHT22;8182;55.648;13.208;2023-08-20T02:32:30;18.70;99.90
16154;DHT22;8182;55.648;13.208;2023-08-20T02:34:58;18.90;99.90
16154;DHT22;8182;55.648;13.208;2023-08-20T02:37:25;18.90;99.90
16154;DHT22;8182;55.648;13.208;2023-08-20T02:39:54;18.80;99.90
16154;DHT22;8182;55.648;13.208;2023-08-20T02:42:21;18.80;99.90
16154;DHT22;8182;55.648;13.208;2023-08-20T02:44:48;18.50;99.90
16154;DHT22;8182;55.648;13.208;2023-08-20T02:47:15;18.60;99.90
16154;DHT22;8182;55.648;13.208;2023-08-20T02:49:42;18.80;99.90
16154;DHT22;8182;55.648;13.208;2023-08-20T02:52:08;18.20;99.90
16154;DHT22;8182;55.648;13.208;2023-08-20T02:54:38;18.40;99.90
16154;DHT22;8182;55.648;13.208;2023-08-20T02:57:06;18.20;99.90
16154;DHT22;8182;55.648;13.208;2023-08-20T02:59:36;18.10;99.90
16154;DHT22;8182;55.648;13.208;2023-08-20T03:02:03;18.40;99.90
16154;DHT22;8182;55.648;13.208;2023-08-20T03:04:30;18.50;99.90
16154;DHT22;8182;55.648;13.208;2023-08-20T03:06:57;18.40;99.90
16154;DHT22;8182;55.648;13.208;2023-08-20T03:09:24;18.40;99.90
16154;DHT22;8182;55.648;13.208;2023-08-20T03:11:51;18.50;99.90
16154;DHT22;8182;55.648;13.208;2023-08-20T03:14:20;18.70;99.90
16154;DHT22;8182;55.648;13.208;2023-08-20T03:16:46;18.70;99.90
16154;DHT22;8182;55.648;13.208;2023-08-20T03:19:15;18.80;99.90
16154;DHT22;8182;55.648;13.208;2023-08-20T03:21:42;18.80;99.90
16154;DHT22;8182;55.648;13.208;2023-08-20T03:24:11;18.80;99.90
16154;DHT22;8182;55.648;13.208;2023-08-20T03:26:43;19.00;99.90
16154;DHT22;8182;55.648;13.208;2023-08-20T03:29:12;18.60;99.90
16154;DHT22;8182;55.648;13.208;2023-08-20T03:31:40;18.70;99.90
16154;DHT22;8182;55.648;13.208;2023-08-20T03:34:07;18.90;99.90
16154;DHT22;8182;55.648;13.208;2023-08-20T03:36:35;18.50;99.90
16154;DHT22;8182;55.648;13.208;2023-08-20T03:39:02;18.30;99.90
16154;DHT22;8182;55.648;13.208;2023-08-20T03:41:29;18.40;99.90
16154;DHT22;8182;55.648;13.208;2023-08-20T03:43:57;18.20;99.90
16154;DHT22;8182;55.648;13.208;2023-08-20T03:46:23;17.80;99.90
16154;DHT22;8182;55.648;13.208;2023-08-20T03:48:51;18.30;99.90
16154;DHT22;8182;55.648;13.208;2023-08-20T03:51:18;18.50;99.90
16154;DHT22;8182;55.648;13.208;2023-08-20T03:53:45;18.40;99.90
16154;DHT22;8182;55.648;13.208;2023-08-20T03:56:12;18.60;99.90
16154;DHT22;8182;55.648;13.208;2023-08-20T03:58:41;18.50;99.90
16154;DHT22;8182;55.648;13.208;2023-08-20T04:01:08;18.50;99.90
16154;DHT22;8182;55.648;13.208;2023-08-20T04:03:35;18.50;99.90
16154;DHT22;8182;55.648;13.208;2023-08-20T04:06:04;18.30;99.90
16154;DHT22;8182;55.648;13.208;2023-08-20T04:08:32;18.20;99.90
16154;DHT22;8182;55.648;13.208;2023-08-20T04:11:08;18.20;99.90
16154;DHT22;8182;55.648;13.208;2023-08-20T04:13:35;18.30;99.90
16154;DHT22;8182;55.648;13.208;2023-08-20T04:16:02;18.60;99.90
16154;DHT22;8182;55.648;13.208;2023-08-20T04:18:29;18.90;99.90
16154;DHT22;8182;55.648;13.208;2023-08-20T04:20:56;18.80;99.90
16154;DHT22;8182;55.648;13.208;2023-08-20T04:23:25;18.70;99.90
16154;DHT22;8182;55.648;13.208;2023-08-20T04:25:52;18.70;99.90
16154;DHT22;8182;55.648;13.208;2023-08-20T04:28:22;18.70;99.90
16154;DHT22;8182;55.648;13.208;2023-08-20T04:30:51;18.70;99.90
16154;DHT22;8182;55.648;13.208;2023-08-20T04:33:19;18.20;99.90
16154;DHT22;8182;55.648;13.208;2023-08-20T04:35:48;18.20;99.90
16154;DHT22;8182;55.648;13.208;2023-08-20T04:38:15;18.10;99.90
16154;DHT22;8182;55.648;13.208;2023-08-20T04:40:46;17.80;99.90
16154;DHT22;8182;55.648;13.208;2023-08-20T04:43:12;18.20;99.90
16154;DHT22;8182;55.648;13.208;2023-08-20T04:45:40;18.40;99.90
16154;DHT22;8182;55.648;13.208;2023-08-20T04:48:07;18.60;99.90
16154;DHT22;8182;55.648;13.208;2023-08-20T04:50:34;18.80;99.90
16154;DHT22;8182;55.648;13.208;2023-08-20T04:53:01;18.80;99.90
16154;DHT22;8182;55.648;13.208;2023-08-20T04:55:28;18.80;99.90
16154;DHT22;8182;55.648;13.208;2023-08-20T04:57:56;18.90;99.90
16154;DHT22;8182;55.648;13.208;2023-08-20T05:00:23;18.70;99.90
16154;DHT22;8182;55.648;13.208;2023-08-20T05:02:50;18.60;99.90
16154;DHT22;8182;55.648;13.208;2023-08-20T05:05:17;18.40;99.90
16154;DHT22;8182;55.648;13.208;2023-08-20T05:07:44;18.20;99.90
16154;DHT22;8182;55.648;13.208;2023-08-20T05:10:17;17.70;99.90
16154;DHT22;8182;55.648;13.208;2023-08-20T05:12:44;17.90;99.90
16154;DHT22;8182;55.648;13.208;2023-08-20T05:15:16;17.70;99.90
16154;DHT22;8182;55.648;13.208;2023-08-20T05:17:43;17.60;99.90
16154;DHT22;8182;55.648;13.208;2023-08-20T05:20:10;18.10;99.90
16154;DHT22;8182;55.648;13.208;2023-08-20T05:22:37;18.30;99.90
16154;DHT22;8182;55.648;13.208;2023-08-20T05:25:07;18.20;99.90
16154;DHT22;8182;55.648;13.208;2023-08-20T05:27:34;18.30;99.90
16154;DHT22;8182;55.648;13.208;2023-08-20T05:30:01;18.60;99.90
16154;DHT22;8182;55.648;13.208;2023-08-20T05:32:30;18.20;99.90
16154;DHT22;8182;55.648;13.208;2023-08-20T05:34:57;18.00;99.90
16154;DHT22;8182;55.648;13.208;2023-08-20T05:37:24;18.30;99.90
16154;DHT22;8182;55.648;13.208;2023-08-20T05:39:51;18.40;99.90
16154;DHT22;8182;55.648;13.208;2023-08-20T05:42:18;18.50;99.90
16154;DHT22;8182;55.648;13.208;2023-08-20T05:44:45;18.50;99.90
16154;DHT22;8182;55.648;13.208;2023-08-20T05:47:11;18.80;99.90
16154;DHT22;8182;55.648;13.208;2023-08-20T05:49:41;19.00;99.90
16154;DHT22;8182;55.648;13.208;2023-08-20T05:52:10;18.70;99.90
16154;DHT22;8182;55.648;13.208;2023-08-20T05:54:39;18.60;99.90
16154;DHT22;8182;55.648;13.208;2023-08-20T05:57:06;19.00;99.90
16154;DHT22;8182;55.648;13.208;2023-08-20T05:59:37;19.20;99.90
16154;DHT22;8182;55.648;13.208;2023-08-20T06:02:15;19.30;99.90
16154;DHT22;8182;55.648;13.208;2023-08-20T06:04:43;19.10;99.90
16154;DHT22;8182;55.648;13.208;2023-08-20T06:07:13;18.60;99.90
16154;DHT22;8182;55.648;13.208;2023-08-20T06:09:45;18.60;99.90
16154;DHT22;8182;55.648;13.208;2023-08-20T06:12:15;19.00;99.90
16154;DHT22;8182;55.648;13.208;2023-08-20T06:14:42;19.20;99.90
16154;DHT22;8182;55.648;13.208;2023-08-20T06:17:12;19.20;99.90
16154;DHT22;8182;55.648;13.208;2023-08-20T06:19:39;19.10;99.90
16154;DHT22;8182;55.648;13.208;2023-08-20T06:22:08;19.30;99.90
16154;DHT22;8182;55.648;13.208;2023-08-20T06:24:38;19.20;99.90
16154;DHT22;8182;55.648;13.208;2023-08-20T06:27:07;19.30;99.90
16154;DHT22;8182;55.648;13.208;2023-08-20T06:29:42;19.40;99.90
16154;DHT22;8182;55.648;13.208;2023-08-20T06:32:09;19.40;99.90
16154;DHT22;8182;55.648;13.208;2023-08-20T06:34:40;19.40;99.90
16154;DHT22;8182;55.648;13.208;2023-08-20T06:37:09;19.20;99.90
16154;DHT22;8182;55.648;13.208;2023-08-20T06:39:37;19.30;99.90
16154;DHT22;8182;55.648;13.208;2023-08-20T06:42:07;19.60;99.90
16154;DHT22;8182;55.648;13.208;2023-08-20T06:44:33;19.50;99.90
16154;DHT22;8182;55.648;13.208;2023-08-20T06:47:01;19.60;99.90
16154;DHT22;8182;55.648;13.208;2023-08-20T06:49:31;19.90;99.90
16154;DHT22;8182;55.648;13.208;2023-08-20T06:52:01;19.80;99.90
16154;DHT22;8182;55.648;13.208;2023-08-20T06:54:30;19.80;99.90
16154;DHT22;8182;55.648;13.208;2023-08-20T06:56:57;19.80;99.90
16154;DHT22;8182;55.648;13.208;2023-08-20T06:59:24;19.70;99.90
16154;DHT22;8182;55.648;13.208;2023-08-20T07:01:56;19.80;99.90
16154;DHT22;8182;55.648;13.208;2023-08-20T07:04:23;19.90;99.90
16154;DHT22;8182;55.648;13.208;2023-08-20T07:06:51;19.90;99.90
16154;DHT22;8182;55.648;13.208;2023-08-20T07:09:18;19.60;99.90
16154;DHT22;8182;55.648;13.208;2023-08-20T07:11:46;19.80;99.90
16154;DHT22;8182;55.648;13.208;2023-08-20T07:14:13;19.90;99.90
16154;DHT22;8182;55.648;13.208;2023-08-20T07:16:40;20.00;99.90
16154;DHT22;8182;55.648;13.208;2023-08-20T07:19:07;20.00;99.90
16154;DHT22;8182;55.648;13.208;2023-08-20T07:21:40;19.90;99.90
16154;DHT22;8182;55.648;13.208;2023-08-20T07:24:10;19.90;99.90
16154;DHT22;8182;55.648;13.208;2023-08-20T07:26:40;19.90;99.90
16154;DHT22;8182;55.648;13.208;2023-08-20T07:29:11;19.90;99.90
16154;DHT22;8182;55.648;13.208;2023-08-20T07:31:44;19.80;99.90
16154;DHT22;8182;55.648;13.208;2023-08-20T07:34:11;19.70;99.90
16154;DHT22;8182;55.648;13.208;2023-08-20T07:36:39;19.60;99.90
16154;DHT22;8182;55.648;13.208;2023-08-20T07:39:08;19.70;99.90
16154;DHT22;8182;55.648;13.208;2023-08-20T07:41:36;19.90;99.90
16154;DHT22;8182;55.648;13.208;2023-08-20T07:44:05;20.10;99.90
16154;DHT22;8182;55.648;13.208;2023-08-20T07:46:37;20.10;99.90
16154;DHT22;8182;55.648;13.208;2023-08-20T07:49:07;20.20;99.90
16154;DHT22;8182;55.648;13.208;2023-08-20T07:51:34;20.00;99.90
16154;DHT22;8182;55.648;13.208;2023-08-20T07:54:05;20.10;99.90
16154;DHT22;8182;55.648;13.208;2023-08-20T07:56:32;20.10;99.90
16154;DHT22;8182;55.648;13.208;2023-08-20T07:59:01;19.90;99.90
16154;DHT22;8182;55.648;13.208;2023-08-20T08:01:31;20.00;99.90
16154;DHT22;8182;55.648;13.208;2023-08-20T08:04:02;20.00;99.90
16154;DHT22;8182;55.648;13.208;2023-08-20T08:06:29;20.10;99.90
16154;DHT22;8182;55.648;13.208;2023-08-20T08:09:21;20.00;99.90
16154;DHT22;8182;55.648;13.208;2023-08-20T08:11:48;19.90;99.90
16154;DHT22;8182;55.648;13.208;2023-08-20T08:14:16;19.50;99.90
16154;DHT22;8182;55.648;13.208;2023-08-20T08:16:44;19.50;99.90
16154;DHT22;8182;55.648;13.208;2023-08-20T08:19:13;19.30;99.90
16154;DHT22;8182;55.648;13.208;2023-08-20T08:21:42;19.50;99.90
16154;DHT22;8182;55.648;13.208;2023-08-20T08:24:12;19.60;99.90
16154;DHT22;8182;55.648;13.208;2023-08-20T08:26:40;19.60;99.90
16154;DHT22;8182;55.648;13.208;2023-08-20T08:29:08;19.50;99.90
16154;DHT22;8182;55.648;13.208;2023-08-20T08:31:38;19.60;99.90
16154;DHT22;8182;55.648;13.208;2023-08-20T08:34:06;19.70;99.90
16154;DHT22;8182;55.648;13.208;2023-08-20T08:36:42;19.50;99.90
16154;DHT22;8182;55.648;13.208;2023-08-20T08:39:09;19.70;99.90
16154;DHT22;8182;55.648;13.208;2023-08-20T08:41:38;19.60;99.90
16154;DHT22;8182;55.648;13.208;2023-08-20T08:44:08;19.60;99.90
16154;DHT22;8182;55.648;13.208;2023-08-20T08:46:39;19.70;99.90
16154;DHT22;8182;55.648;13.208;2023-08-20T08:49:06;19.70;99.90
16154;DHT22;8182;55.648;13.208;2023-08-20T08:51:46;19.70;99.90
16154;DHT22;8182;55.648;13.208;2023-08-20T08:54:17;19.50;99.90
16154;DHT22;8182;55.648;13.208;2023-08-20T08:56:44;19.60;99.90
16154;DHT22;8182;55.648;13.208;2023-08-20T08:59:12;19.60;99.90
16154;DHT22;8182;55.648;13.208;2023-08-20T09:01:41;19.70;99.90
16154;DHT22;8182;55.648;13.208;2023-08-20T09:04:17;19.60;99.90
16154;DHT22;8182;55.648;13.208;2023-08-20T09:06:49;19.70;99.90
16154;DHT22;8182;55.648;13.208;2023-08-20T09:09:18;19.60;99.90
16154;DHT22;8182;55.648;13.208;2023-08-20T09:11:45;19.50;99.90
16154;DHT22;8182;55.648;13.208;2023-08-20T09:14:21;19.60;99.90
16154;DHT22;8182;55.648;13.208;2023-08-20T09:16:54;19.60;99.90
16154;DHT22;8182;55.648;13.208;2023-08-20T09:19:22;19.60;99.90
16154;DHT22;8182;55.648;13.208;2023-08-20T09:21:51;19.60;99.90
16154;DHT22;8182;55.648;13.208;2023-08-20T09:24:26;19.50;99.90
16154;DHT22;8182;55.648;13.208;2023-08-20T09:26:58;19.60;99.90
16154;DHT22;8182;55.648;13.208;2023-08-20T09:29:25;19.60;99.90
16154;DHT22;8182;55.648;13.208;2023-08-20T09:32:00;19.60;99.90
16154;DHT22;8182;55.648;13.208;2023-08-20T09:34:36;19.50;99.90
16154;DHT22;8182;55.648;13.208;2023-08-20T09:37:07;19.50;99.90
16154;DHT22;8182;55.648;13.208;2023-08-20T09:39:34;19.50;99.90
16154;DHT22;8182;55.648;13.208;2023-08-20T09:42:02;19.40;99.90
16154;DHT22;8182;55.648;13.208;2023-08-20T09:44:33;19.40;99.90
16154;DHT22;8182;55.648;13.208;2023-08-20T09:47:02;19.40;99.90
16154;DHT22;8182;55.648;13.208;2023-08-20T09:49:30;19.40;99.90
16154;DHT22;8182;55.648;13.208;2023-08-20T09:52:05;19.50;99.90
16154;DHT22;8182;55.648;13.208;2023-08-20T09:54:45;19.50;99.90
16154;DHT22;8182;55.648;13.208;2023-08-20T09:57:26;19.50;99.90
16154;DHT22;8182;55.648;13.208;2023-08-20T09:59:54;19.60;99.90
16154;DHT22;8182;55.648;13.208;2023-08-20T10:02:21;19.60;99.90
16154;DHT22;8182;55.648;13.208;2023-08-20T10:04:49;19.50;99.90
16154;DHT22;8182;55.648;13.208;2023-08-20T10:07:18;19.50;99.90
16154;DHT22;8182;55.648;13.208;2023-08-20T10:09:46;19.50;99.90
16154;DHT22;8182;55.648;13.208;2023-08-20T10:12:19;19.50;99.90
16154;DHT22;8182;55.648;13.208;2023-08-20T10:14:46;19.60;99.90
16154;DHT22;8182;55.648;13.208;2023-08-20T10:17:14;19.70;99.90
16154;DHT22;8182;55.648;13.208;2023-08-20T10:19:41;19.80;99.90
16154;DHT22;8182;55.648;13.208;2023-08-20T10:22:08;19.80;99.90
16154;DHT22;8182;55.648;13.208;2023-08-20T10:24:50;19.80;99.90
16154;DHT22;8182;55.648;13.208;2023-08-20T10:27:25;19.90;99.90
16154;DHT22;8182;55.648;13.208;2023-08-20T10:29:53;19.70;99.90
16154;DHT22;8182;55.648;13.208;2023-08-20T10:32:21;19.70;99.90
16154;DHT22;8182;55.648;13.208;2023-08-20T10:35:08;19.60;99.90
16154;DHT22;8182;55.648;13.208;2023-08-20T10:37:35;19.60;99.90
16154;DHT22;8182;55.648;13.208;2023-08-20T10:40:05;19.40;99.90
16154;DHT22;8182;55.648;13.208;2023-08-20T10:42:43;19.40;99.90
16154;DHT22;8182;55.648;13.208;2023-08-20T10:45:10;19.40;99.90
16154;DHT22;8182;55.648;13.208;2023-08-20T10:47:48;19.40;99.90
16154;DHT22;8182;55.648;13.208;2023-08-20T10:50:16;19.40;99.90
16154;DHT22;8182;55.648;13.208;2023-08-20T10:52:48;19.30;99.90
16154;DHT22;8182;55.648;13.208;2023-08-20T10:55:22;19.40;99.90
16154;DHT22;8182;55.648;13.208;2023-08-20T10:57:54;19.40;99.90
16154;DHT22;8182;55.648;13.208;2023-08-20T11:00:21;19.50;99.90
16154;DHT22;8182;55.648;13.208;2023-08-20T11:02:49;19.50;99.90
16154;DHT22;8182;55.648;13.208;2023-08-20T11:05:18;19.50;99.90
16154;DHT22;8182;55.648;13.208;2023-08-20T11:07:47;19.50;99.90
16154;DHT22;8182;55.648;13.208;2023-08-20T11:10:19;19.50;99.90
16154;DHT22;8182;55.648;13.208;2023-08-20T11:12:46;19.60;99.90
16154;DHT22;8182;55.648;13.208;2023-08-20T11:15:13;19.60;99.90
16154;DHT22;8182;55.648;13.208;2023-08-20T11:17:41;19.60;99.90
16154;DHT22;8182;55.648;13.208;2023-08-20T11:20:09;19.70;99.90
16154;DHT22;8182;55.648;13.208;2023-08-20T11:22:39;19.90;99.90
16154;DHT22;8182;55.648;13.208;2023-08-20T11:25:10;20.00;99.90
16154;DHT22;8182;55.648;13.208;2023-08-20T11:27:45;20.10;99.90
16154;DHT22;8182;55.648;13.208;2023-08-20T11:30:12;20.30;99.90
16154;DHT22;8182;55.648;13.208;2023-08-20T11:32:39;20.80;99.90
16154;DHT22;8182;55.648;13.208;2023-08-20T11:35:16;21.20;99.90
16154;DHT22;8182;55.648;13.208;2023-08-20T11:37:43;21.10;99.90
16154;DHT22;8182;55.648;13.208;2023-08-20T11:40:10;21.10;99.90
16154;DHT22;8182;55.648;13.208;2023-08-20T11:42:38;20.90;99.90
16154;DHT22;8182;55.648;13.208;2023-08-20T11:45:10;20.80;99.90
16154;DHT22;8182;55.648;13.208;2023-08-20T11:47:39;20.70;99.90
16154;DHT22;8182;55.648;13.208;2023-08-20T11:50:13;20.70;99.90
16154;DHT22;8182;55.648;13.208;2023-08-20T11:52:40;21.00;99.90
16154;DHT22;8182;55.648;13.208;2023-08-20T11:55:22;21.10;99.90
16154;DHT22;8182;55.648;13.208;2023-08-20T11:57:56;21.10;99.90
16154;DHT22;8182;55.648;13.208;2023-08-20T12:00:26;20.90;99.90
16154;DHT22;8182;55.648;13.208;2023-08-20T12:03:01;21.00;99.90
16154;DHT22;8182;55.648;13.208;2023-08-20T12:05:41;21.00;99.90
16154;DHT22;8182;55.648;13.208;2023-08-20T12:08:15;21.00;99.90
16154;DHT22;8182;55.648;13.208;2023-08-20T12:10:43;21.30;99.90
16154;DHT22;8182;55.648;13.208;2023-08-20T12:13:11;21.60;99.90
16154;DHT22;8182;55.648;13.208;2023-08-20T12:15:54;21.50;99.90
16154;DHT22;8182;55.648;13.208;2023-08-20T12:18:21;21.30;99.90
16154;DHT22;8182;55.648;13.208;2023-08-20T12:20:48;21.30;99.90
16154;DHT22;8182;55.648;13.208;2023-08-20T12:23:19;21.40;99.90
16154;DHT22;8182;55.648;13.208;2023-08-20T12:25:50;21.30;99.90
16154;DHT22;8182;55.648;13.208;2023-08-20T12:28:17;21.40;99.90
16154;DHT22;8182;55.648;13.208;2023-08-20T12:30:49;21.40;99.90
16154;DHT22;8182;55.648;13.208;2023-08-20T12:33:30;21.50;99.90
16154;DHT22;8182;55.648;13.208;2023-08-20T12:35:58;21.60;99.90
16154;DHT22;8182;55.648;13.208;2023-08-20T12:38:25;21.60;99.90
16154;DHT22;8182;55.648;13.208;2023-08-20T12:40:52;21.60;99.90
16154;DHT22;8182;55.648;13.208;2023-08-20T12:43:19;21.70;1.00
16154;DHT22;8182;55.648;13.208;2023-08-20T12:45:47;21.80;99.90
16154;DHT22;8182;55.648;13.208;2023-08-20T12:48:14;21.80;99.90
16154;DHT22;8182;55.648;13.208;2023-08-20T12:50:42;21.80;99.90
16154;DHT22;8182;55.648;13.208;2023-08-20T12:53:09;21.70;57.90
16154;DHT22;8182;55.648;13.208;2023-08-20T12:55:38;21.70;1.00
16154;DHT22;8182;55.648;13.208;2023-08-20T12:58:06;21.70;1.00
16154;DHT22;8182;55.648;13.208;2023-08-20T13:00:33;21.50;1.00
16154;DHT22;8182;55.648;13.208;2023-08-20T13:03:02;21.50;1.00
16154;DHT22;8182;55.648;13.208;2023-08-20T13:05:30;21.80;1.00
16154;DHT22;8182;55.648;13.208;2023-08-20T13:07:57;21.90;1.00
16154;DHT22;8182;55.648;13.208;2023-08-20T13:10:26;21.80;1.00
16154;DHT22;8182;55.648;13.208;2023-08-20T13:12:58;21.70;1.00
16154;DHT22;8182;55.648;13.208;2023-08-20T13:15:30;21.70;1.00
16154;DHT22;8182;55.648;13.208;2023-08-20T13:17:57;21.70;1.00
16154;DHT22;8182;55.648;13.208;2023-08-20T13:20:26;21.50;1.00
16154;DHT22;8182;55.648;13.208;2023-08-20T13:22:53;21.40;1.00
16154;DHT22;8182;55.648;13.208;2023-08-20T13:25:20;21.50;1.00
16154;DHT22;8182;55.648;13.208;2023-08-20T13:27:47;21.80;1.00
16154;DHT22;8182;55.648;13.208;2023-08-20T13:30:15;21.70;1.00
16154;DHT22;8182;55.648;13.208;2023-08-20T13:32:43;21.60;1.00
16154;DHT22;8182;55.648;13.208;2023-08-20T13:35:10;21.50;1.00
16154;DHT22;8182;55.648;13.208;2023-08-20T13:37:39;21.40;1.00
16154;DHT22;8182;55.648;13.208;2023-08-20T13:40:07;21.50;99.50
16154;DHT22;8182;55.648;13.208;2023-08-20T13:42:35;21.50;99.90
16154;DHT22;8182;55.648;13.208;2023-08-20T13:45:02;21.50;1.00
16154;DHT22;8182;55.648;13.208;2023-08-20T13:47:30;21.50;1.00
16154;DHT22;8182;55.648;13.208;2023-08-20T13:49:57;21.70;1.00
16154;DHT22;8182;55.648;13.208;2023-08-20T13:52:23;21.90;1.00
16154;DHT22;8182;55.648;13.208;2023-08-20T13:54:52;21.60;1.00
16154;DHT22;8182;55.648;13.208;2023-08-20T13:57:19;21.60;1.00
16154;DHT22;8182;55.648;13.208;2023-08-20T13:59:45;21.60;1.00
16154;DHT22;8182;55.648;13.208;2023-08-20T14:02:18;21.60;1.00
16154;DHT22;8182;55.648;13.208;2023-08-20T14:04:45;21.50;1.00
16154;DHT22;8182;55.648;13.208;2023-08-20T14:07:17;21.60;1.00
16154;DHT22;8182;55.648;13.208;2023-08-20T14:09:45;21.60;1.00
16154;DHT22;8182;55.648;13.208;2023-08-20T14:12:13;21.70;99.90
16154;DHT22;8182;55.648;13.208;2023-08-20T14:14:40;21.70;99.90
16154;DHT22;8182;55.648;13.208;2023-08-20T14:17:07;21.70;99.90
16154;DHT22;8182;55.648;13.208;2023-08-20T14:19:34;21.80;99.90
16154;DHT22;8182;55.648;13.208;2023-08-20T14:22:01;21.70;99.90
16154;DHT22;8182;55.648;13.208;2023-08-20T14:24:28;21.90;99.90
16154;DHT22;8182;55.648;13.208;2023-08-20T14:26:55;21.90;99.90
16154;DHT22;8182;55.648;13.208;2023-08-20T14:29:23;21.90;99.90
16154;DHT22;8182;55.648;13.208;2023-08-20T14:31:50;22.00;99.90
16154;DHT22;8182;55.648;13.208;2023-08-20T14:34:17;22.00;99.90
16154;DHT22;8182;55.648;13.208;2023-08-20T14:36:44;21.90;99.90
16154;DHT22;8182;55.648;13.208;2023-08-20T14:39:11;22.10;99.90
16154;DHT22;8182;55.648;13.208;2023-08-20T14:41:39;22.00;99.90
16154;DHT22;8182;55.648;13.208;2023-08-20T14:44:06;21.80;99.90
16154;DHT22;8182;55.648;13.208;2023-08-20T14:46:34;21.90;99.90
16154;DHT22;8182;55.648;13.208;2023-08-20T14:49:04;21.80;99.90
16154;DHT22;8182;55.648;13.208;2023-08-20T14:51:31;21.90;99.90
16154;DHT22;8182;55.648;13.208;2023-08-20T14:53:59;21.90;99.90
16154;DHT22;8182;55.648;13.208;2023-08-20T14:56:26;22.10;99.90
16154;DHT22;8182;55.648;13.208;2023-08-20T14:58:53;22.00;99.90
16154;DHT22;8182;55.648;13.208;2023-08-20T15:01:20;22.00;99.90
16154;DHT22;8182;55.648;13.208;2023-08-20T15:03:48;22.20;99.90
16154;DHT22;8182;55.648;13.208;2023-08-20T15:06:15;22.20;99.90
16154;DHT22;8182;55.648;13.208;2023-08-20T15:08:45;22.30;99.90
16154;DHT22;8182;55.648;13.208;2023-08-20T15:11:12;22.40;99.90
16154;DHT22;8182;55.648;13.208;2023-08-20T15:13:39;22.30;99.90
16154;DHT22;8182;55.648;13.208;2023-08-20T15:16:08;22.20;99.90
16154;DHT22;8182;55.648;13.208;2023-08-20T15:18:35;22.00;99.90
16154;DHT22;8182;55.648;13.208;2023-08-20T15:21:07;22.00;99.90
16154;DHT22;8182;55.648;13.208;2023-08-20T15:23:35;21.90;99.90
16154;DHT22;8182;55.648;13.208;2023-08-20T15:26:03;22.00;99.90
16154;DHT22;8182;55.648;13.208;2023-08-20T15:28:30;21.90;99.90
16154;DHT22;8182;55.648;13.208;2023-08-20T15:30:57;22.00;99.90
16154;DHT22;8182;55.648;13.208;2023-08-20T15:33:24;22.00;99.90
16154;DHT22;8182;55.648;13.208;2023-08-20T15:35:51;22.10;99.90
16154;DHT22;8182;55.648;13.208;2023-08-20T15:38:19;22.00;99.90
16154;DHT22;8182;55.648;13.208;2023-08-20T15:40:46;21.90;99.90
16154;DHT22;8182;55.648;13.208;2023-08-20T15:43:12;21.90;99.90
16154;DHT22;8182;55.648;13.208;2023-08-20T15:45:40;21.80;99.90
16154;DHT22;8182;55.648;13.208;2023-08-20T15:48:07;21.80;99.90